createdAt,value
2023-02-09T00:04:53.700Z,6.90
2023-02-09T00:10:15.444Z,7.13
2023-02-09T00:15:38.005Z,6.77
2023-02-09T00:21:03.217Z,6.97
2023-02-09T00:26:24.524Z,6.37
2023-02-09T00:31:46.133Z,7.23
2023-02-09T00:37:07.387Z,6.47
2023-02-09T00:42:28.844Z,6.57
2023-02-09T00:47:50.174Z,7.43
2023-02-09T00:53:11.551Z,6.80
2023-02-09T00:58:35.490Z,7.03
2023-02-09T01:03:57.459Z,7.33
2023-02-09T01:09:18.990Z,7.50
2023-02-09T01:14:40.317Z,7.37
2023-02-09T01:20:02.341Z,7.27
2023-02-09T01:25:23.537Z,7.33
2023-02-09T01:30:45.580Z,5.97
2023-02-09T01:36:08.641Z,6.33
2023-02-09T01:41:30.846Z,6.40
2023-02-09T01:46:52.340Z,6.00
2023-02-09T01:52:18.202Z,6.17
2023-02-09T01:58:04.659Z,6.83
2023-02-09T02:03:28.210Z,6.97
2023-02-09T02:08:57.843Z,6.97
2023-02-09T02:14:39.842Z,8.00
2023-02-09T02:20:29.442Z,7.70
2023-02-09T02:26:07.212Z,7.60
2023-02-09T02:31:56.852Z,7.47
2023-02-09T02:37:45.819Z,7.60
2023-02-09T02:43:34.023Z,7.93
2023-02-09T02:49:13.147Z,8.00
2023-02-09T02:54:41.256Z,8.33
2023-02-09T03:00:10.650Z,9.07
2023-02-09T03:05:33.276Z,8.50
2023-02-09T03:10:54.646Z,8.83
2023-02-09T03:16:47.329Z,8.67
2023-02-09T03:22:26.985Z,8.27
2023-02-09T03:28:04.081Z,7.43
2023-02-09T03:33:33.715Z,9.07
2023-02-09T03:38:55.288Z,7.97
2023-02-09T03:44:28.750Z,8.73
2023-02-09T03:49:50.224Z,7.50
2023-02-09T03:55:11.959Z,8.40
2023-02-09T04:00:33.382Z,8.03
2023-02-09T04:05:54.968Z,8.70
2023-02-09T04:11:16.532Z,8.90
2023-02-09T04:16:38.446Z,8.20
2023-02-09T04:22:01.062Z,7.80
2023-02-09T04:27:22.512Z,8.57
2023-02-09T04:32:45.359Z,9.47
2023-02-09T04:38:06.768Z,8.80
2023-02-09T04:43:29.036Z,7.47
2023-02-09T04:48:50.575Z,8.23
2023-02-09T04:54:11.872Z,8.37
2023-02-09T04:59:36.064Z,8.90
2023-02-09T05:04:57.707Z,8.87
2023-02-09T05:10:19.217Z,8.73
2023-02-09T05:15:40.803Z,8.00
2023-02-09T05:21:02.183Z,7.90
2023-02-09T05:26:23.595Z,8.03
2023-02-09T05:31:45.068Z,8.27
2023-02-09T05:37:06.151Z,8.80
2023-02-09T05:42:28.195Z,8.10
2023-02-09T05:47:49.253Z,7.23
2023-02-09T05:53:11.079Z,7.77
2023-02-09T05:58:32.714Z,8.40
2023-02-09T06:03:54.327Z,8.47
2023-02-09T06:09:15.769Z,8.13
2023-02-09T06:14:37.346Z,8.03
2023-02-09T06:19:58.808Z,7.37
2023-02-09T06:25:20.355Z,8.07
2023-02-09T06:30:42.074Z,8.43
2023-02-09T06:36:04.571Z,7.87
2023-02-09T06:41:26.097Z,8.93
2023-02-09T06:46:47.673Z,8.90
2023-02-09T06:52:09.193Z,9.10
2023-02-09T06:57:31.365Z,9.83
2023-02-09T07:02:53.630Z,8.77
2023-02-09T07:08:15.212Z,7.60
2023-02-09T07:13:36.595Z,8.43
2023-02-09T07:19:00.501Z,8.60
2023-02-09T07:24:21.738Z,8.07
2023-02-09T07:29:43.259Z,8.73
2023-02-09T07:35:04.700Z,9.23
2023-02-09T07:40:26.336Z,8.90
2023-02-09T07:45:47.895Z,11.00
2023-02-09T07:51:15.093Z,10.37
2023-02-09T07:56:36.607Z,9.97
2023-02-09T08:01:58.332Z,11.33
2023-02-09T08:07:19.853Z,10.67
2023-02-09T08:12:59.983Z,10.10
2023-02-09T08:18:48.198Z,10.97
2023-02-09T08:24:10.858Z,11.77
2023-02-09T08:29:32.144Z,11.40
2023-02-09T08:34:53.909Z,12.60
2023-02-09T08:40:15.552Z,13.03
2023-02-09T08:45:39.392Z,12.33
2023-02-09T08:51:01.182Z,9.37
2023-02-09T08:56:23.626Z,11.13
2023-02-09T09:01:44.942Z,4.60
2023-02-09T09:07:06.388Z,9.20
2023-02-09T09:12:29.719Z,7.67
2023-02-09T09:17:51.061Z,8.43
2023-02-09T09:23:12.622Z,9.27
2023-02-09T09:28:34.148Z,8.50
2023-02-09T09:33:56.380Z,7.83
2023-02-09T09:39:18.900Z,5.83
2023-02-09T09:44:47.143Z,8.53
2023-02-09T09:50:35.872Z,8.70
2023-02-09T09:55:59.621Z,7.90
2023-02-09T10:01:21.759Z,9.53
2023-02-09T10:06:45.568Z,8.03
2023-02-09T10:12:24.919Z,6.73
2023-02-09T10:17:46.530Z,8.53
2023-02-09T10:23:25.193Z,8.47
2023-02-09T10:28:49.675Z,6.50
2023-02-09T10:34:15.543Z,8.53
2023-02-09T10:39:37.334Z,9.43
2023-02-09T10:45:11.899Z,7.77
2023-02-09T10:50:33.453Z,8.80
2023-02-09T10:56:05.987Z,9.17
2023-02-09T11:01:31.864Z,9.10
2023-02-09T11:06:53.158Z,8.63
2023-02-09T11:12:14.600Z,7.50
2023-02-09T11:17:50.093Z,8.03
2023-02-09T11:23:32.636Z,8.73
2023-02-09T11:29:20.358Z,8.47
2023-02-09T11:35:06.542Z,9.40
2023-02-09T11:40:42.768Z,8.20
2023-02-09T11:46:19.104Z,9.90
2023-02-09T11:51:44.111Z,9.40
2023-02-09T11:57:17.064Z,9.30
2023-02-09T12:02:55.450Z,9.50
2023-02-09T12:08:44.885Z,9.53
2023-02-09T12:14:13.955Z,9.03
2023-02-09T12:19:40.030Z,8.87
2023-02-09T12:25:21.466Z,8.70
2023-02-09T12:30:43.049Z,8.30
2023-02-09T12:36:10.439Z,6.27
2023-02-09T12:41:52.233Z,8.10
2023-02-09T12:47:55.978Z,9.07
2023-02-09T12:53:23.900Z,9.23
2023-02-09T12:58:45.395Z,7.53
2023-02-09T13:04:07.978Z,8.97
2023-02-09T13:09:38.315Z,8.60
2023-02-09T13:15:13.354Z,9.53
2023-02-09T13:21:17.053Z,9.40
2023-02-09T13:26:54.120Z,10.77
2023-02-09T13:32:37.846Z,9.17
2023-02-09T13:38:01.515Z,9.53
2023-02-09T13:43:40.530Z,9.47
2023-02-09T13:49:18.558Z,9.57
2023-02-09T13:54:40.969Z,9.87
2023-02-09T14:00:19.429Z,9.93
2023-02-09T14:05:48.054Z,8.50
2023-02-09T14:11:41.775Z,6.40
2023-02-09T14:17:25.929Z,6.50
2023-02-09T14:22:57.231Z,6.47
2023-02-09T14:28:18.802Z,6.40
2023-02-09T14:33:40.120Z,6.50
2023-02-09T14:39:22.902Z,6.23
2023-02-09T14:44:55.263Z,6.17
2023-02-09T14:50:20.668Z,7.20
2023-02-09T14:55:42.569Z,6.93
2023-02-09T15:01:04.360Z,7.73
2023-02-09T15:06:29.167Z,7.77
2023-02-09T15:12:05.670Z,8.97
2023-02-09T15:17:29.962Z,7.87
2023-02-09T15:22:52.408Z,8.10
2023-02-09T15:28:34.439Z,8.27
2023-02-09T15:33:55.918Z,8.10
2023-02-09T15:39:25.253Z,8.40
2023-02-09T15:45:07.101Z,8.50
2023-02-09T15:50:29.726Z,8.43
2023-02-09T15:55:51.377Z,7.50
2023-02-09T16:01:17.864Z,7.70
2023-02-09T16:06:40.072Z,9.17
2023-02-09T16:12:01.583Z,8.83
2023-02-09T16:17:23.088Z,7.40
2023-02-09T16:22:47.217Z,7.27
2023-02-09T16:28:12.418Z,7.43
2023-02-09T16:33:35.575Z,7.90
2023-02-09T16:38:57.340Z,8.60
2023-02-09T16:44:22.495Z,8.30
2023-02-09T16:49:50.043Z,7.73
2023-02-09T16:55:22.406Z,7.00
2023-02-09T17:00:45.089Z,7.07
2023-02-09T17:06:11.782Z,7.60
2023-02-09T17:11:33.435Z,7.00
2023-02-09T17:16:54.909Z,9.23
2023-02-09T17:22:17.470Z,8.53
2023-02-09T17:27:39.871Z,11.57
2023-02-09T17:33:03.702Z,13.10
2023-02-09T17:38:34.499Z,11.37
2023-02-09T17:44:13.835Z,10.30
2023-02-09T17:49:41.085Z,11.37
2023-02-09T17:55:02.729Z,11.97
2023-02-09T18:00:25.769Z,11.23
2023-02-09T18:05:53.558Z,12.33
2023-02-09T18:11:16.536Z,10.93
2023-02-09T18:16:38.484Z,22.67
2023-02-09T18:22:01.380Z,14.03
2023-02-09T18:27:24.410Z,14.63
2023-02-09T18:32:46.037Z,15.47
2023-02-09T18:38:10.033Z,14.57
2023-02-09T18:43:31.226Z,14.77
2023-02-09T18:48:54.154Z,12.67
2023-02-09T18:54:15.800Z,13.40
2023-02-09T18:59:37.601Z,15.67
2023-02-09T19:05:02.753Z,12.47
2023-02-09T19:10:24.391Z,18.77
2023-02-09T19:15:46.332Z,10.83
2023-02-09T19:21:08.328Z,9.77
2023-02-09T19:26:29.516Z,9.27
2023-02-09T19:31:50.874Z,9.27
2023-02-09T19:37:14.146Z,10.07
2023-02-09T19:42:35.549Z,10.37
2023-02-09T19:47:58.308Z,9.90
2023-02-09T19:53:19.620Z,8.97
2023-02-09T19:58:41.319Z,9.00
2023-02-09T20:04:02.841Z,10.27
2023-02-09T20:09:24.311Z,9.07
2023-02-09T20:14:45.487Z,9.73
2023-02-09T20:20:07.332Z,9.80
2023-02-09T20:25:28.868Z,9.70
2023-02-09T20:30:50.310Z,8.43
2023-02-09T20:36:12.155Z,10.27
2023-02-09T20:41:33.595Z,10.40
2023-02-09T20:46:57.879Z,10.30
2023-02-09T20:52:19.375Z,11.57
2023-02-09T20:57:40.769Z,10.70
2023-02-09T21:03:02.356Z,9.63
2023-02-09T21:08:23.919Z,10.50
2023-02-09T21:13:46.272Z,9.87
2023-02-09T21:19:07.476Z,10.27
2023-02-09T21:24:29.050Z,9.83
2023-02-09T21:29:50.686Z,10.37
2023-02-09T21:35:12.064Z,10.43
2023-02-09T21:40:34.272Z,10.53
2023-02-09T21:45:55.566Z,10.70
2023-02-09T21:51:17.157Z,10.00
2023-02-09T21:56:41.918Z,11.07
2023-02-09T22:02:03.720Z,10.10
2023-02-09T22:07:25.315Z,9.77
2023-02-09T22:12:47.444Z,10.47
2023-02-09T22:18:09.603Z,8.87
2023-02-09T22:23:31.185Z,7.47
2023-02-09T22:28:52.799Z,7.63
2023-02-09T22:34:14.671Z,11.70
2023-02-09T22:39:36.006Z,10.87
2023-02-09T22:44:57.585Z,10.60
2023-02-09T22:50:19.229Z,11.70
2023-02-09T22:55:40.661Z,11.63
2023-02-09T23:01:02.325Z,11.50
2023-02-09T23:06:27.370Z,11.20
2023-02-09T23:11:49.004Z,11.17
2023-02-09T23:17:10.505Z,11.50
2023-02-09T23:22:32.117Z,12.37
2023-02-09T23:27:53.626Z,10.80
2023-02-09T23:33:15.165Z,10.47
2023-02-09T23:38:36.652Z,10.60
2023-02-09T23:43:58.286Z,10.93
2023-02-09T23:49:19.624Z,10.70
2023-02-09T23:54:41.267Z,9.23
